sensor_id;sensor_type;location;lat;lon;timestamp;pressure;altitude;pressure_sealevel;temperature;humidity
32131;BME280;18639;50.716;7.086;2022-10-16T00:02:19;99989.25;;;13.91;100.00
32131;BME280;18639;50.716;7.086;2022-10-16T00:04:44;99967.06;;;13.77;100.00
32131;BME280;18639;50.716;7.086;2022-10-16T00:07:09;99966.63;;;13.72;100.00
32131;BME280;18639;50.716;7.086;2022-10-16T00:09:35;99982.56;;;13.88;100.00
32131;BME280;18639;50.716;7.086;2022-10-16T00:12:00;99993.63;;;13.90;100.00
32131;BME280;18639;50.716;7.086;2022-10-16T00:14:25;99982.13;;;13.83;100.00
32131;BME280;18639;50.716;7.086;2022-10-16T00:16:50;99982.25;;;13.82;100.00
32131;BME280;18639;50.716;7.086;2022-10-16T00:19:16;99990.59;;;13.85;100.00
32131;BME280;18639;50.716;7.086;2022-10-16T00:21:41;99985.53;;;13.84;100.00
32131;BME280;18639;50.716;7.086;2022-10-16T00:24:09;99993.91;;;13.87;100.00
32131;BME280;18639;50.716;7.086;2022-10-16T00:26:36;100008.53;;;13.88;100.00
32131;BME280;18639;50.716;7.086;2022-10-16T00:29:02;99994.41;;;13.81;100.00
32131;BME280;18639;50.716;7.086;2022-10-16T00:31:28;99991.53;;;13.84;100.00
32131;BME280;18639;50.716;7.086;2022-10-16T00:33:54;99986.50;;;13.83;100.00
32131;BME280;18639;50.716;7.086;2022-10-16T00:36:22;99988.38;;;13.81;100.00
32131;BME280;18639;50.716;7.086;2022-10-16T00:38:50;99967.38;;;13.63;100.00
32131;BME280;18639;50.716;7.086;2022-10-16T00:41:19;99999.59;;;13.81;100.00
32131;BME280;18639;50.716;7.086;2022-10-16T00:43:47;100002.31;;;13.80;100.00
32131;BME280;18639;50.716;7.086;2022-10-16T00:48:50;99973.69;;;13.70;100.00
32131;BME280;18639;50.716;7.086;2022-10-16T00:51:18;99992.44;;;13.74;100.00
32131;BME280;18639;50.716;7.086;2022-10-16T00:53:44;99986.94;;;13.67;100.00
32131;BME280;18639;50.716;7.086;2022-10-16T00:56:10;99973.25;;;13.65;100.00
32131;BME280;18639;50.716;7.086;2022-10-16T00:58:35;99992.06;;;13.78;100.00
32131;BME280;18639;50.716;7.086;2022-10-16T01:01:01;99994.34;;;13.72;100.00
32131;BME280;18639;50.716;7.086;2022-10-16T01:03:31;99990.00;;;13.72;100.00
32131;BME280;18639;50.716;7.086;2022-10-16T01:09:00;99976.81;;;13.64;100.00
32131;BME280;18639;50.716;7.086;2022-10-16T01:11:33;99994.91;;;13.75;100.00
32131;BME280;18639;50.716;7.086;2022-10-16T01:14:04;99977.75;;;13.63;100.00
32131;BME280;18639;50.716;7.086;2022-10-16T01:16:53;99997.06;;;13.70;100.00
32131;BME280;18639;50.716;7.086;2022-10-16T01:19:50;99974.91;;;13.66;100.00
32131;BME280;18639;50.716;7.086;2022-10-16T01:22:19;99985.31;;;13.66;100.00
32131;BME280;18639;50.716;7.086;2022-10-16T01:24:49;99998.13;;;13.68;100.00
32131;BME280;18639;50.716;7.086;2022-10-16T01:27:21;99998.53;;;13.63;100.00
32131;BME280;18639;50.716;7.086;2022-10-16T01:29:53;100006.56;;;13.60;100.00
32131;BME280;18639;50.716;7.086;2022-10-16T01:32:31;100008.09;;;13.63;100.00
32131;BME280;18639;50.716;7.086;2022-10-16T01:35:05;100000.94;;;13.55;100.00
32131;BME280;18639;50.716;7.086;2022-10-16T01:37:41;100005.03;;;13.58;100.00
32131;BME280;18639;50.716;7.086;2022-10-16T01:40:11;99998.22;;;13.57;100.00
32131;BME280;18639;50.716;7.086;2022-10-16T01:42:41;100003.09;;;13.50;100.00
32131;BME280;18639;50.716;7.086;2022-10-16T01:45:08;99986.19;;;13.35;100.00
32131;BME280;18639;50.716;7.086;2022-10-16T01:47:37;100007.69;;;13.46;100.00
32131;BME280;18639;50.716;7.086;2022-10-16T01:50:04;99997.84;;;13.40;100.00
32131;BME280;18639;50.716;7.086;2022-10-16T01:52:32;100013.72;;;13.47;100.00
32131;BME280;18639;50.716;7.086;2022-10-16T01:55:00;100022.59;;;13.44;100.00
32131;BME280;18639;50.716;7.086;2022-10-16T01:57:28;100010.81;;;13.40;100.00
32131;BME280;18639;50.716;7.086;2022-10-16T01:59:58;100008.91;;;13.42;100.00
32131;BME280;18639;50.716;7.086;2022-10-16T02:02:27;100011.13;;;13.47;100.00
32131;BME280;18639;50.716;7.086;2022-10-16T02:04:58;100014.88;;;13.54;100.00
32131;BME280;18639;50.716;7.086;2022-10-16T02:07:27;100008.72;;;13.55;100.00
32131;BME280;18639;50.716;7.086;2022-10-16T02:09:53;100005.63;;;13.61;100.00
32131;BME280;18639;50.716;7.086;2022-10-16T02:12:25;100009.06;;;13.62;100.00
32131;BME280;18639;50.716;7.086;2022-10-16T02:14:52;100020.25;;;13.62;100.00
32131;BME280;18639;50.716;7.086;2022-10-16T02:17:18;100019.50;;;13.71;100.00
32131;BME280;18639;50.716;7.086;2022-10-16T02:19:46;100014.03;;;13.74;100.00
32131;BME280;18639;50.716;7.086;2022-10-16T02:22:27;100012.03;;;13.78;100.00
32131;BME280;18639;50.716;7.086;2022-10-16T02:27:36;100005.34;;;13.85;100.00
32131;BME280;18639;50.716;7.086;2022-10-16T02:30:14;100009.81;;;13.94;100.00
32131;BME280;18639;50.716;7.086;2022-10-16T02:32:43;100004.59;;;13.94;100.00
32131;BME280;18639;50.716;7.086;2022-10-16T02:35:10;100001.19;;;13.94;100.00
32131;BME280;18639;50.716;7.086;2022-10-16T02:37:36;100019.53;;;14.02;100.00
32131;BME280;18639;50.716;7.086;2022-10-16T02:40:02;100020.09;;;14.05;100.00
32131;BME280;18639;50.716;7.086;2022-10-16T02:42:39;100035.03;;;14.13;100.00
32131;BME280;18639;50.716;7.086;2022-10-16T02:45:06;100032.56;;;14.11;100.00
32131;BME280;18639;50.716;7.086;2022-10-16T02:47:32;100037.25;;;14.17;100.00
32131;BME280;18639;50.716;7.086;2022-10-16T02:49:57;100026.03;;;14.17;100.00
32131;BME280;18639;50.716;7.086;2022-10-16T02:52:22;100019.19;;;14.16;100.00
32131;BME280;18639;50.716;7.086;2022-10-16T02:54:48;100018.66;;;14.22;100.00
32131;BME280;18639;50.716;7.086;2022-10-16T02:57:13;100019.50;;;14.22;100.00
32131;BME280;18639;50.716;7.086;2022-10-16T02:59:39;100024.72;;;14.32;100.00
32131;BME280;18639;50.716;7.086;2022-10-16T03:02:04;100027.31;;;14.32;100.00
32131;BME280;18639;50.716;7.086;2022-10-16T03:04:29;100026.78;;;14.28;100.00
32131;BME280;18639;50.716;7.086;2022-10-16T03:06:55;100026.13;;;14.36;100.00
32131;BME280;18639;50.716;7.086;2022-10-16T03:09:20;100006.69;;;14.30;100.00
32131;BME280;18639;50.716;7.086;2022-10-16T03:11:45;99992.69;;;14.22;100.00
32131;BME280;18639;50.716;7.086;2022-10-16T03:14:11;99993.50;;;14.22;100.00
32131;BME280;18639;50.716;7.086;2022-10-16T03:16:36;100002.31;;;14.31;100.00
32131;BME280;18639;50.716;7.086;2022-10-16T03:19:01;100007.09;;;14.26;100.00
32131;BME280;18639;50.716;7.086;2022-10-16T03:21:26;99990.47;;;14.17;100.00
32131;BME280;18639;50.716;7.086;2022-10-16T03:23:52;99993.38;;;14.24;100.00
32131;BME280;18639;50.716;7.086;2022-10-16T03:26:17;100006.53;;;14.32;100.00
32131;BME280;18639;50.716;7.086;2022-10-16T03:28:42;100021.13;;;14.44;100.00
32131;BME280;18639;50.716;7.086;2022-10-16T03:31:07;100030.56;;;14.45;100.00
32131;BME280;18639;50.716;7.086;2022-10-16T03:33:33;100006.88;;;14.39;100.00
32131;BME280;18639;50.716;7.086;2022-10-16T03:35:58;99991.16;;;14.40;100.00
32131;BME280;18639;50.716;7.086;2022-10-16T03:38:24;99995.00;;;14.46;100.00
32131;BME280;18639;50.716;7.086;2022-10-16T03:40:49;99997.47;;;14.47;100.00
32131;BME280;18639;50.716;7.086;2022-10-16T03:43:15;100024.44;;;14.56;100.00
32131;BME280;18639;50.716;7.086;2022-10-16T03:45:40;100018.53;;;14.54;100.00
32131;BME280;18639;50.716;7.086;2022-10-16T03:48:05;100020.19;;;14.55;100.00
32131;BME280;18639;50.716;7.086;2022-10-16T03:50:31;100012.00;;;14.59;100.00
32131;BME280;18639;50.716;7.086;2022-10-16T03:52:56;100007.06;;;14.56;100.00
32131;BME280;18639;50.716;7.086;2022-10-16T03:55:21;100007.22;;;14.64;100.00
32131;BME280;18639;50.716;7.086;2022-10-16T03:57:47;100021.06;;;14.74;100.00
32131;BME280;18639;50.716;7.086;2022-10-16T04:00:12;100037.50;;;14.75;100.00
32131;BME280;18639;50.716;7.086;2022-10-16T04:02:38;100039.97;;;14.77;100.00
32131;BME280;18639;50.716;7.086;2022-10-16T04:05:04;100038.59;;;14.72;100.00
32131;BME280;18639;50.716;7.086;2022-10-16T04:07:29;100027.91;;;14.66;100.00
32131;BME280;18639;50.716;7.086;2022-10-16T04:09:55;100044.06;;;14.69;100.00
32131;BME280;18639;50.716;7.086;2022-10-16T04:12:22;100040.78;;;14.67;100.00
32131;BME280;18639;50.716;7.086;2022-10-16T04:14:47;100061.31;;;14.70;100.00
32131;BME280;18639;50.716;7.086;2022-10-16T04:17:12;100071.88;;;14.69;100.00
32131;BME280;18639;50.716;7.086;2022-10-16T04:19:37;100062.66;;;14.65;100.00
32131;BME280;18639;50.716;7.086;2022-10-16T04:22:03;100051.28;;;14.56;100.00
32131;BME280;18639;50.716;7.086;2022-10-16T04:24:28;100068.28;;;14.70;100.00
32131;BME280;18639;50.716;7.086;2022-10-16T04:26:53;100044.59;;;14.63;100.00
32131;BME280;18639;50.716;7.086;2022-10-16T04:29:19;100064.19;;;14.67;100.00
32131;BME280;18639;50.716;7.086;2022-10-16T04:31:44;100063.75;;;14.62;100.00
32131;BME280;18639;50.716;7.086;2022-10-16T04:34:09;100075.94;;;14.62;100.00
32131;BME280;18639;50.716;7.086;2022-10-16T04:36:34;100080.31;;;14.61;100.00
32131;BME280;18639;50.716;7.086;2022-10-16T04:39:00;100085.50;;;14.61;100.00
32131;BME280;18639;50.716;7.086;2022-10-16T04:41:25;100082.38;;;14.58;100.00
32131;BME280;18639;50.716;7.086;2022-10-16T04:43:50;100085.75;;;14.58;100.00
32131;BME280;18639;50.716;7.086;2022-10-16T04:46:15;100085.09;;;14.56;100.00
32131;BME280;18639;50.716;7.086;2022-10-16T04:48:41;100079.84;;;14.47;100.00
32131;BME280;18639;50.716;7.086;2022-10-16T04:51:06;100098.47;;;14.52;100.00
32131;BME280;18639;50.716;7.086;2022-10-16T04:53:31;100088.47;;;14.47;100.00
32131;BME280;18639;50.716;7.086;2022-10-16T04:55:56;100090.09;;;14.48;100.00
32131;BME280;18639;50.716;7.086;2022-10-16T04:58:22;100084.63;;;14.42;100.00
32131;BME280;18639;50.716;7.086;2022-10-16T05:00:48;100095.13;;;14.40;100.00
32131;BME280;18639;50.716;7.086;2022-10-16T05:03:13;100070.53;;;14.23;100.00
32131;BME280;18639;50.716;7.086;2022-10-16T05:05:43;100105.91;;;14.36;100.00
32131;BME280;18639;50.716;7.086;2022-10-16T05:08:09;100103.94;;;14.28;100.00
32131;BME280;18639;50.716;7.086;2022-10-16T05:10:35;100104.63;;;14.30;100.00
32131;BME280;18639;50.716;7.086;2022-10-16T05:13:00;100095.56;;;14.24;100.00
32131;BME280;18639;50.716;7.086;2022-10-16T05:15:25;100102.81;;;14.21;100.00
32131;BME280;18639;50.716;7.086;2022-10-16T05:17:54;100100.56;;;14.16;100.00
32131;BME280;18639;50.716;7.086;2022-10-16T05:20:20;100094.44;;;14.17;100.00
32131;BME280;18639;50.716;7.086;2022-10-16T05:22:45;100073.31;;;14.11;100.00
32131;BME280;18639;50.716;7.086;2022-10-16T05:25:11;100083.97;;;14.08;100.00
32131;BME280;18639;50.716;7.086;2022-10-16T05:27:36;100095.88;;;14.10;100.00
32131;BME280;18639;50.716;7.086;2022-10-16T05:30:02;100099.31;;;14.11;100.00
32131;BME280;18639;50.716;7.086;2022-10-16T05:32:27;100101.22;;;14.09;100.00
32131;BME280;18639;50.716;7.086;2022-10-16T05:34:53;100100.06;;;14.02;100.00
32131;BME280;18639;50.716;7.086;2022-10-16T05:37:18;100092.66;;;13.97;100.00
32131;BME280;18639;50.716;7.086;2022-10-16T05:39:43;100095.44;;;14.05;100.00
32131;BME280;18639;50.716;7.086;2022-10-16T05:42:08;100078.34;;;14.03;100.00
32131;BME280;18639;50.716;7.086;2022-10-16T05:44:34;100090.63;;;14.01;100.00
32131;BME280;18639;50.716;7.086;2022-10-16T05:46:59;100093.81;;;14.04;100.00
32131;BME280;18639;50.716;7.086;2022-10-16T05:49:24;100098.69;;;13.98;100.00
32131;BME280;18639;50.716;7.086;2022-10-16T05:51:49;100118.19;;;14.13;100.00
32131;BME280;18639;50.716;7.086;2022-10-16T05:54:15;100113.28;;;14.10;100.00
32131;BME280;18639;50.716;7.086;2022-10-16T05:56:40;100132.59;;;14.17;100.00
32131;BME280;18639;50.716;7.086;2022-10-16T05:59:06;100142.75;;;14.20;100.00
32131;BME280;18639;50.716;7.086;2022-10-16T06:01:31;100153.81;;;14.22;100.00
32131;BME280;18639;50.716;7.086;2022-10-16T06:03:57;100137.28;;;14.23;100.00
32131;BME280;18639;50.716;7.086;2022-10-16T06:06:26;100119.25;;;14.10;100.00
32131;BME280;18639;50.716;7.086;2022-10-16T06:08:53;100136.59;;;14.21;100.00
32131;BME280;18639;50.716;7.086;2022-10-16T06:11:23;100148.88;;;14.19;100.00
32131;BME280;18639;50.716;7.086;2022-10-16T06:13:50;100157.84;;;14.26;100.00
32131;BME280;18639;50.716;7.086;2022-10-16T06:16:16;100159.59;;;14.25;100.00
32131;BME280;18639;50.716;7.086;2022-10-16T06:18:41;100169.84;;;14.27;100.00
32131;BME280;18639;50.716;7.086;2022-10-16T06:21:12;100167.41;;;14.25;100.00
32131;BME280;18639;50.716;7.086;2022-10-16T06:23:38;100162.81;;;14.18;100.00
32131;BME280;18639;50.716;7.086;2022-10-16T06:26:08;100176.03;;;14.26;100.00
32131;BME280;18639;50.716;7.086;2022-10-16T06:28:34;100170.38;;;14.21;100.00
32131;BME280;18639;50.716;7.086;2022-10-16T06:31:00;100182.28;;;14.23;100.00
32131;BME280;18639;50.716;7.086;2022-10-16T06:33:25;100172.97;;;14.21;100.00
32131;BME280;18639;50.716;7.086;2022-10-16T06:35:50;100169.47;;;14.11;100.00
32131;BME280;18639;50.716;7.086;2022-10-16T06:38:16;100199.66;;;14.23;100.00
32131;BME280;18639;50.716;7.086;2022-10-16T06:40:41;100203.09;;;14.23;100.00
32131;BME280;18639;50.716;7.086;2022-10-16T06:43:06;100179.19;;;14.09;100.00
32131;BME280;18639;50.716;7.086;2022-10-16T06:45:31;100203.00;;;14.14;100.00
32131;BME280;18639;50.716;7.086;2022-10-16T06:47:57;100201.09;;;14.16;100.00
32131;BME280;18639;50.716;7.086;2022-10-16T06:50:22;100193.50;;;14.03;100.00
32131;BME280;18639;50.716;7.086;2022-10-16T06:52:47;100213.84;;;14.19;100.00
32131;BME280;18639;50.716;7.086;2022-10-16T06:55:13;100231.56;;;14.25;100.00
32131;BME280;18639;50.716;7.086;2022-10-16T06:57:38;100233.91;;;14.28;100.00
32131;BME280;18639;50.716;7.086;2022-10-16T07:00:04;100226.09;;;14.28;100.00
32131;BME280;18639;50.716;7.086;2022-10-16T07:02:29;100222.28;;;14.32;100.00
32131;BME280;18639;50.716;7.086;2022-10-16T07:04:54;100223.47;;;14.39;100.00
32131;BME280;18639;50.716;7.086;2022-10-16T07:07:22;100242.13;;;14.44;100.00
32131;BME280;18639;50.716;7.086;2022-10-16T07:09:49;100245.44;;;14.46;100.00
32131;BME280;18639;50.716;7.086;2022-10-16T07:12:14;100260.66;;;14.51;100.00
32131;BME280;18639;50.716;7.086;2022-10-16T07:14:40;100256.06;;;14.43;100.00
32131;BME280;18639;50.716;7.086;2022-10-16T07:17:05;100229.19;;;14.22;100.00
32131;BME280;18639;50.716;7.086;2022-10-16T07:19:30;100257.34;;;14.49;100.00
32131;BME280;18639;50.716;7.086;2022-10-16T07:21:56;100268.28;;;14.63;100.00
32131;BME280;18639;50.716;7.086;2022-10-16T07:24:22;100263.88;;;14.64;100.00
32131;BME280;18639;50.716;7.086;2022-10-16T07:26:47;100261.16;;;14.65;100.00
32131;BME280;18639;50.716;7.086;2022-10-16T07:29:15;100286.97;;;14.78;100.00
32131;BME280;18639;50.716;7.086;2022-10-16T07:31:41;100297.72;;;14.85;100.00
32131;BME280;18639;50.716;7.086;2022-10-16T07:34:07;100305.97;;;14.90;100.00
32131;BME280;18639;50.716;7.086;2022-10-16T07:36:32;100304.97;;;14.91;100.00
32131;BME280;18639;50.716;7.086;2022-10-16T07:38:57;100316.22;;;14.91;100.00
32131;BME280;18639;50.716;7.086;2022-10-16T07:41:23;100314.44;;;14.92;100.00
32131;BME280;18639;50.716;7.086;2022-10-16T07:43:50;100300.50;;;14.93;100.00
32131;BME280;18639;50.716;7.086;2022-10-16T07:46:17;100311.78;;;15.03;100.00
32131;BME280;18639;50.716;7.086;2022-10-16T07:48:43;100323.56;;;15.07;100.00
32131;BME280;18639;50.716;7.086;2022-10-16T07:51:11;100324.00;;;15.12;100.00
32131;BME280;18639;50.716;7.086;2022-10-16T07:53:37;100335.97;;;15.14;100.00
32131;BME280;18639;50.716;7.086;2022-10-16T07:56:06;100332.72;;;15.22;100.00
32131;BME280;18639;50.716;7.086;2022-10-16T07:58:32;100340.72;;;15.30;100.00
32131;BME280;18639;50.716;7.086;2022-10-16T08:00:58;100336.63;;;15.37;100.00
32131;BME280;18639;50.716;7.086;2022-10-16T08:03:24;100333.09;;;15.38;100.00
32131;BME280;18639;50.716;7.086;2022-10-16T08:05:50;100338.84;;;15.42;100.00
32131;BME280;18639;50.716;7.086;2022-10-16T08:08:17;100345.56;;;15.44;100.00
32131;BME280;18639;50.716;7.086;2022-10-16T08:10:42;100335.94;;;15.35;100.00
32131;BME280;18639;50.716;7.086;2022-10-16T08:13:08;100350.41;;;15.49;100.00
32131;BME280;18639;50.716;7.086;2022-10-16T08:15:33;100344.97;;;15.52;100.00
32131;BME280;18639;50.716;7.086;2022-10-16T08:18:00;100348.13;;;15.55;100.00
32131;BME280;18639;50.716;7.086;2022-10-16T08:20:27;100353.63;;;15.62;100.00
32131;BME280;18639;50.716;7.086;2022-10-16T08:22:53;100354.88;;;15.68;100.00
32131;BME280;18639;50.716;7.086;2022-10-16T08:25:19;100352.47;;;15.76;100.00
32131;BME280;18639;50.716;7.086;2022-10-16T08:27:45;100329.97;;;15.75;100.00
32131;BME280;18639;50.716;7.086;2022-10-16T08:30:10;100355.25;;;15.93;100.00
32131;BME280;18639;50.716;7.086;2022-10-16T08:32:36;100333.09;;;16.37;100.00
32131;BME280;18639;50.716;7.086;2022-10-16T08:35:01;100357.00;;;17.19;100.00
32131;BME280;18639;50.716;7.086;2022-10-16T08:37:30;100356.63;;;17.88;100.00
32131;BME280;18639;50.716;7.086;2022-10-16T08:39:56;100359.06;;;18.17;100.00
32131;BME280;18639;50.716;7.086;2022-10-16T08:42:46;100363.72;;;18.41;100.00
32131;BME280;18639;50.716;7.086;2022-10-16T08:45:24;100365.84;;;18.55;100.00
32131;BME280;18639;50.716;7.086;2022-10-16T08:50:26;100382.31;;;18.38;100.00
32131;BME280;18639;50.716;7.086;2022-10-16T08:52:53;100358.56;;;18.31;100.00
32131;BME280;18639;50.716;7.086;2022-10-16T08:58:16;100372.16;;;18.35;96.74
32131;BME280;18639;50.716;7.086;2022-10-16T09:00:45;100384.88;;;18.30;97.34
32131;BME280;18639;50.716;7.086;2022-10-16T09:03:33;100389.81;;;18.33;98.30
32131;BME280;18639;50.716;7.086;2022-10-16T09:13:57;100400.69;;;18.11;96.86
32131;BME280;18639;50.716;7.086;2022-10-16T09:16:30;100390.81;;;18.22;96.98
32131;BME280;18639;50.716;7.086;2022-10-16T09:21:40;100393.69;;;18.29;95.66
32131;BME280;18639;50.716;7.086;2022-10-16T09:24:17;100391.53;;;18.24;94.35
32131;BME280;18639;50.716;7.086;2022-10-16T09:26:44;100395.22;;;18.22;94.38
32131;BME280;18639;50.716;7.086;2022-10-16T09:29:17;100401.19;;;18.69;94.09
32131;BME280;18639;50.716;7.086;2022-10-16T09:31:45;100390.78;;;19.20;90.79
32131;BME280;18639;50.716;7.086;2022-10-16T09:34:34;100396.34;;;19.69;85.86
32131;BME280;18639;50.716;7.086;2022-10-16T09:37:04;100386.84;;;20.10;85.53
32131;BME280;18639;50.716;7.086;2022-10-16T09:39:30;100394.41;;;20.87;83.09
32131;BME280;18639;50.716;7.086;2022-10-16T09:42:11;100390.22;;;21.66;78.79
32131;BME280;18639;50.716;7.086;2022-10-16T09:44:39;100398.41;;;22.49;77.71
32131;BME280;18639;50.716;7.086;2022-10-16T09:47:12;100379.66;;;22.75;71.39
32131;BME280;18639;50.716;7.086;2022-10-16T09:49:51;100390.81;;;22.99;66.85
32131;BME280;18639;50.716;7.086;2022-10-16T09:52:18;100386.75;;;23.26;65.09
32131;BME280;18639;50.716;7.086;2022-10-16T09:54:54;100401.06;;;23.32;65.62
32131;BME280;18639;50.716;7.086;2022-10-16T09:57:21;100399.09;;;23.63;62.71
32131;BME280;18639;50.716;7.086;2022-10-16T09:59:52;100396.91;;;23.52;60.26
32131;BME280;18639;50.716;7.086;2022-10-16T10:02:38;100392.47;;;23.82;63.12
32131;BME280;18639;50.716;7.086;2022-10-16T10:05:20;100390.72;;;24.04;59.87
32131;BME280;18639;50.716;7.086;2022-10-16T10:07:54;100380.75;;;24.06;61.43
32131;BME280;18639;50.716;7.086;2022-10-16T10:10:23;100382.09;;;23.80;60.76
32131;BME280;18639;50.716;7.086;2022-10-16T10:12:49;100385.34;;;23.68;59.91
32131;BME280;18639;50.716;7.086;2022-10-16T10:15:15;100387.19;;;23.53;61.29
32131;BME280;18639;50.716;7.086;2022-10-16T10:17:50;100387.38;;;23.14;59.32
32131;BME280;18639;50.716;7.086;2022-10-16T10:22:50;100381.19;;;22.61;60.09
32131;BME280;18639;50.716;7.086;2022-10-16T10:30:59;100372.56;;;21.82;63.76
32131;BME280;18639;50.716;7.086;2022-10-16T10:33:41;100373.31;;;21.52;66.05
32131;BME280;18639;50.716;7.086;2022-10-16T10:36:16;100387.97;;;21.06;66.33
32131;BME280;18639;50.716;7.086;2022-10-16T10:38:51;100391.94;;;21.02;66.11
32131;BME280;18639;50.716;7.086;2022-10-16T10:41:43;100395.38;;;20.86;68.13
32131;BME280;18639;50.716;7.086;2022-10-16T10:47:30;100387.00;;;20.50;71.76
32131;BME280;18639;50.716;7.086;2022-10-16T10:50:08;100385.16;;;20.43;69.16
32131;BME280;18639;50.716;7.086;2022-10-16T10:58:10;100390.78;;;19.72;70.66
32131;BME280;18639;50.716;7.086;2022-10-16T11:06:11;100382.00;;;19.55;74.02
32131;BME280;18639;50.716;7.086;2022-10-16T11:08:45;100394.31;;;19.55;75.75
32131;BME280;18639;50.716;7.086;2022-10-16T11:11:36;100404.81;;;19.55;72.65
32131;BME280;18639;50.716;7.086;2022-10-16T11:14:14;100402.91;;;19.73;73.78
32131;BME280;18639;50.716;7.086;2022-10-16T11:17:12;100394.56;;;19.77;73.40
32131;BME280;18639;50.716;7.086;2022-10-16T11:27:49;100398.13;;;19.60;73.08
32131;BME280;18639;50.716;7.086;2022-10-16T11:30:22;100399.59;;;19.63;75.32
32131;BME280;18639;50.716;7.086;2022-10-16T11:32:56;100396.94;;;19.55;74.43
32131;BME280;18639;50.716;7.086;2022-10-16T11:38:02;100403.53;;;19.41;74.51
32131;BME280;18639;50.716;7.086;2022-10-16T11:40:32;100397.88;;;19.28;75.82
32131;BME280;18639;50.716;7.086;2022-10-16T11:43:08;100392.56;;;19.20;79.02
32131;BME280;18639;50.716;7.086;2022-10-16T11:45:53;100411.28;;;19.25;80.77
32131;BME280;18639;50.716;7.086;2022-10-16T11:51:14;100416.41;;;19.09;85.24
32131;BME280;18639;50.716;7.086;2022-10-16T11:53:50;100421.28;;;19.04;85.11
32131;BME280;18639;50.716;7.086;2022-10-16T11:56:20;100418.13;;;19.00;85.11
32131;BME280;18639;50.716;7.086;2022-10-16T12:01:18;100426.81;;;19.01;87.03
32131;BME280;18639;50.716;7.086;2022-10-16T12:09:29;100421.03;;;19.15;85.38
32131;BME280;18639;50.716;7.086;2022-10-16T12:11:54;100412.34;;;19.14;83.49
32131;BME280;18639;50.716;7.086;2022-10-16T12:14:33;100410.91;;;19.20;84.76
32131;BME280;18639;50.716;7.086;2022-10-16T12:17:23;100409.25;;;19.19;84.53
32131;BME280;18639;50.716;7.086;2022-10-16T12:20:19;100415.41;;;19.27;82.51
32131;BME280;18639;50.716;7.086;2022-10-16T12:22:52;100414.59;;;19.27;83.36
32131;BME280;18639;50.716;7.086;2022-10-16T12:25:29;100419.50;;;19.30;84.80
32131;BME280;18639;50.716;7.086;2022-10-16T12:28:00;100423.09;;;19.29;84.51
32131;BME280;18639;50.716;7.086;2022-10-16T12:30:29;100424.47;;;19.33;84.95
32131;BME280;18639;50.716;7.086;2022-10-16T12:32:57;100419.22;;;19.33;83.40
32131;BME280;18639;50.716;7.086;2022-10-16T12:35:27;100427.69;;;19.27;80.94
32131;BME280;18639;50.716;7.086;2022-10-16T12:37:54;100413.25;;;19.23;82.95
32131;BME280;18639;50.716;7.086;2022-10-16T12:40:31;100413.41;;;19.21;84.17
32131;BME280;18639;50.716;7.086;2022-10-16T12:42:57;100429.63;;;19.25;83.62
32131;BME280;18639;50.716;7.086;2022-10-16T12:45:32;100425.22;;;19.25;84.02
32131;BME280;18639;50.716;7.086;2022-10-16T12:48:01;100410.22;;;19.18;86.92
32131;BME280;18639;50.716;7.086;2022-10-16T12:50:34;100411.63;;;19.30;87.50
32131;BME280;18639;50.716;7.086;2022-10-16T12:53:01;100409.84;;;19.30;85.60
32131;BME280;18639;50.716;7.086;2022-10-16T12:55:33;100386.00;;;19.16;81.47
32131;BME280;18639;50.716;7.086;2022-10-16T13:00:56;100401.00;;;19.49;82.95
32131;BME280;18639;50.716;7.086;2022-10-16T13:11:50;100404.38;;;19.67;81.51
32131;BME280;18639;50.716;7.086;2022-10-16T13:14:50;100414.72;;;19.69;78.79
32131;BME280;18639;50.716;7.086;2022-10-16T13:17:43;100420.44;;;19.64;80.72
32131;BME280;18639;50.716;7.086;2022-10-16T13:20:23;100404.97;;;19.61;79.63
32131;BME280;18639;50.716;7.086;2022-10-16T13:28:14;100411.78;;;19.46;83.26
32131;BME280;18639;50.716;7.086;2022-10-16T13:30:50;100418.13;;;19.44;83.40
32131;BME280;18639;50.716;7.086;2022-10-16T13:33:20;100403.94;;;19.28;85.85
32131;BME280;18639;50.716;7.086;2022-10-16T13:35:55;100427.72;;;19.35;85.53
32131;BME280;18639;50.716;7.086;2022-10-16T13:38:23;100429.84;;;19.31;83.24
32131;BME280;18639;50.716;7.086;2022-10-16T13:40:50;100421.28;;;19.29;82.13
32131;BME280;18639;50.716;7.086;2022-10-16T13:43:18;100414.50;;;19.19;83.37
32131;BME280;18639;50.716;7.086;2022-10-16T13:46:16;100429.25;;;19.20;84.49
32131;BME280;18639;50.716;7.086;2022-10-16T13:48:40;100419.56;;;19.12;83.36
32131;BME280;18639;50.716;7.086;2022-10-16T13:51:15;100409.88;;;19.13;82.95
32131;BME280;18639;50.716;7.086;2022-10-16T13:53:42;100421.63;;;19.26;82.70
32131;BME280;18639;50.716;7.086;2022-10-16T13:56:17;100418.53;;;19.31;82.60
32131;BME280;18639;50.716;7.086;2022-10-16T13:58:42;100407.38;;;19.29;82.91
32131;BME280;18639;50.716;7.086;2022-10-16T14:01:20;100421.59;;;19.44;84.01
32131;BME280;18639;50.716;7.086;2022-10-16T14:03:49;100414.00;;;19.41;83.51
32131;BME280;18639;50.716;7.086;2022-10-16T14:06:17;100415.97;;;19.39;83.09
32131;BME280;18639;50.716;7.086;2022-10-16T14:08:51;100427.81;;;19.43;82.51
32131;BME280;18639;50.716;7.086;2022-10-16T14:11:22;100415.97;;;19.39;85.14
32131;BME280;18639;50.716;7.086;2022-10-16T14:13:49;100418.75;;;19.38;84.42
32131;BME280;18639;50.716;7.086;2022-10-16T14:16:18;100425.47;;;19.40;83.96
32131;BME280;18639;50.716;7.086;2022-10-16T14:18:55;100431.16;;;19.35;83.16
32131;BME280;18639;50.716;7.086;2022-10-16T14:21:21;100403.88;;;19.20;85.43